UAE23E OMDB-FACT
Flight info
| Callsign | UAE23E |
|---|---|
| Flight time | N/A |
| Altitude | 30000 |
| Route | ANVIX R401 GIDIS G783 UKRAG/N0503F290 L710 KUKDI/N0504F300 B400 VEDET UL437 VBU UP305 XOXAM UT969 ESPUV DCT UDGIM UQ60 NEXIT UQ23 OKLOK DCT ERDAS ERDAS1C |
| Aircraft | B77W/H-SDE1E2E3FGHIJ2J3J4J5M1RWXY/LB1D1 |
Departure
| Time | 2026-04-25 06:43 |
|---|---|
| Airport | Dubai International Airport (OMDB) |
Arrival
| Time | N/A |
|---|---|
| Airport | Cape Town International Airport (FACT) |
| Time | Latitude | Longitude | Altitude | Speed | Heading |
|---|---|---|---|---|---|
| 2026-04-25 06:18 | 25.24804 | 55.36441 | 76 ft | 0 kts | 211° |
| 2026-04-25 06:32 | 25.24809 | 55.36444 | 76 ft | 0 kts | 211° |
| 2026-04-25 06:33 | 25.24820 | 55.36451 | 76 ft | 2 kts | 205° |
| 2026-04-25 06:33 | 25.24835 | 55.36457 | 76 ft | 2 kts | 192° |
| 2026-04-25 06:33 | 25.24849 | 55.36459 | 76 ft | 2 kts | 182° |
| 2026-04-25 06:33 | 25.24864 | 55.36459 | 76 ft | 2 kts | 172° |
| 2026-04-25 06:34 | 25.24879 | 55.36456 | 76 ft | 2 kts | 162° |
| 2026-04-25 06:34 | 25.24893 | 55.36450 | 76 ft | 2 kts | 152° |
| 2026-04-25 06:34 | 25.24906 | 55.36441 | 76 ft | 2 kts | 142° |
| 2026-04-25 06:34 | 25.24917 | 55.36430 | 76 ft | 2 kts | 131° |
| 2026-04-25 06:35 | 25.24926 | 55.36418 | 76 ft | 1 kts | 122° |
| 2026-04-25 06:35 | 25.24928 | 55.36415 | 76 ft | 0 kts | 121° |
| 2026-04-25 06:37 | 25.24926 | 55.36417 | 76 ft | 1 kts | 121° |
| 2026-04-25 06:37 | 25.24914 | 55.36439 | 76 ft | 5 kts | 121° |
| 2026-04-25 06:37 | 25.24888 | 55.36488 | 76 ft | 9 kts | 121° |
| 2026-04-25 06:37 | 25.24847 | 55.36559 | 76 ft | 12 kts | 122° |
| 2026-04-25 06:38 | 25.24799 | 55.36648 | 76 ft | 12 kts | 112° |
| 2026-04-25 06:38 | 25.24781 | 55.36735 | 76 ft | 11 kts | 100° |
| 2026-04-25 06:38 | 25.24800 | 55.36823 | 76 ft | 12 kts | 59° |
| 2026-04-25 06:38 | 25.24818 | 55.36906 | 76 ft | 11 kts | 105° |
| 2026-04-25 06:39 | 25.24775 | 55.36990 | 76 ft | 13 kts | 122° |
| 2026-04-25 06:39 | 25.24724 | 55.37081 | 76 ft | 14 kts | 121° |
| 2026-04-25 06:39 | 25.24666 | 55.37186 | 76 ft | 17 kts | 121° |
| 2026-04-25 06:39 | 25.24597 | 55.37311 | 76 ft | 20 kts | 121° |
| 2026-04-25 06:40 | 25.24519 | 55.37448 | 76 ft | 21 kts | 121° |
| 2026-04-25 06:40 | 25.24442 | 55.37588 | 76 ft | 21 kts | 121° |
| 2026-04-25 06:40 | 25.24376 | 55.37708 | 76 ft | 14 kts | 121° |
| 2026-04-25 06:40 | 25.24340 | 55.37790 | 76 ft | 10 kts | 91° |
| 2026-04-25 06:41 | 25.24374 | 55.37846 | 76 ft | 8 kts | 36° |
| 2026-04-25 06:41 | 25.24431 | 55.37890 | 76 ft | 12 kts | 34° |
| 2026-04-25 06:41 | 25.24517 | 55.37956 | 76 ft | 17 kts | 34° |
| 2026-04-25 06:41 | 25.24619 | 55.38032 | 76 ft | 16 kts | 32° |
| 2026-04-25 06:42 | 25.24706 | 55.38091 | 76 ft | 11 kts | 31° |
| 2026-04-25 06:42 | 25.24760 | 55.38102 | 76 ft | 6 kts | 323° |
| 2026-04-25 06:42 | 25.24783 | 55.38067 | 76 ft | 6 kts | 302° |
| 2026-04-25 06:42 | 25.24855 | 55.37939 | 76 ft | 45 kts | 301° |
| 2026-04-25 06:43 | 25.25135 | 55.37432 | 76 ft | 109 kts | 300° |
| 2026-04-25 06:43 | 25.25647 | 55.36512 | 76 ft | 168 kts | 302° |
| 2026-04-25 06:43 | 25.26344 | 55.35252 | 147 ft | 211 kts | 302° |
| 2026-04-25 06:43 | 25.27111 | 55.33859 | 853 ft | 212 kts | 301° |
| 2026-04-25 06:44 | 25.27844 | 55.32525 | 1711 ft | 202 kts | 301° |
| 2026-04-25 06:44 | 25.28558 | 55.31189 | 2116 ft | 208 kts | 297° |
| 2026-04-25 06:44 | 25.28989 | 55.29594 | 2277 ft | 226 kts | 275° |
| 2026-04-25 06:44 | 25.28805 | 55.27861 | 2675 ft | 233 kts | 251° |
| 2026-04-25 06:45 | 25.28164 | 55.26194 | 3198 ft | 235 kts | 246° |
| 2026-04-25 06:45 | 25.27474 | 55.24562 | 3687 ft | 237 kts | 246° |
| 2026-04-25 06:45 | 25.26776 | 55.22923 | 4226 ft | 237 kts | 246° |
| 2026-04-25 06:45 | 25.26082 | 55.21290 | 4750 ft | 239 kts | 246° |
| 2026-04-25 06:46 | 25.25366 | 55.19608 | 5232 ft | 244 kts | 245° |
| 2026-04-25 06:46 | 25.24376 | 55.18058 | 5490 ft | 256 kts | 221° |
| 2026-04-25 06:46 | 25.22867 | 55.17053 | 6002 ft | 258 kts | 198° |
| 2026-04-25 06:46 | 25.21055 | 55.16771 | 6432 ft | 264 kts | 178° |
| 2026-04-25 06:47 | 25.19260 | 55.17189 | 6893 ft | 269 kts | 154° |
| 2026-04-25 06:47 | 25.17747 | 55.18372 | 7348 ft | 274 kts | 132° |
| 2026-04-25 06:47 | 25.16704 | 55.20197 | 7511 ft | 290 kts | 113° |
| 2026-04-25 06:47 | 25.15904 | 55.22247 | 8038 ft | 293 kts | 115° |
| 2026-04-25 06:48 | 25.15022 | 55.24285 | 8474 ft | 300 kts | 118° |
| 2026-04-25 06:48 | 25.14062 | 55.26339 | 8953 ft | 305 kts | 119° |
| 2026-04-25 06:48 | 25.13073 | 55.28405 | 9522 ft | 306 kts | 119° |
| 2026-04-25 06:48 | 25.12046 | 55.30541 | 9825 ft | 320 kts | 119° |
| 2026-04-25 06:49 | 25.10978 | 55.32755 | 10049 ft | 336 kts | 118° |
| 2026-04-25 06:49 | 25.09907 | 55.35110 | 10289 ft | 352 kts | 115° |
| 2026-04-25 06:49 | 25.08895 | 55.37616 | 10566 ft | 366 kts | 115° |
| 2026-04-25 06:49 | 25.07841 | 55.40223 | 10850 ft | 379 kts | 115° |
| 2026-04-25 06:50 | 25.06748 | 55.42928 | 11280 ft | 388 kts | 114° |
| 2026-04-25 06:50 | 25.05707 | 55.45653 | 11899 ft | 390 kts | 113° |
| 2026-04-25 06:50 | 25.04649 | 55.48430 | 12522 ft | 392 kts | 113° |
| 2026-04-25 06:50 | 25.03594 | 55.51187 | 13100 ft | 396 kts | 113° |
| 2026-04-25 06:51 | 25.02524 | 55.53974 | 13632 ft | 400 kts | 114° |
| 2026-04-25 06:51 | 25.01253 | 55.56744 | 14146 ft | 404 kts | 121° |
| 2026-04-25 06:51 | 24.99828 | 55.59405 | 14671 ft | 408 kts | 121° |
| 2026-04-25 06:51 | 24.98360 | 55.62122 | 15202 ft | 412 kts | 121° |
| 2026-04-25 06:52 | 24.96902 | 55.64816 | 15716 ft | 415 kts | 121° |
| 2026-04-25 06:52 | 24.95412 | 55.67570 | 16219 ft | 419 kts | 122° |
| 2026-04-25 06:52 | 24.93887 | 55.70282 | 16696 ft | 422 kts | 126° |
| 2026-04-25 06:52 | 24.92158 | 55.72934 | 17175 ft | 426 kts | 127° |
| 2026-04-25 06:53 | 24.90414 | 55.75559 | 17646 ft | 430 kts | 127° |
| 2026-04-25 06:53 | 24.88634 | 55.78238 | 18148 ft | 433 kts | 127° |
| 2026-04-25 06:53 | 24.86845 | 55.80931 | 18653 ft | 435 kts | 127° |
| 2026-04-25 06:53 | 24.85068 | 55.83607 | 19110 ft | 439 kts | 127° |
| 2026-04-25 06:54 | 24.83230 | 55.86332 | 19582 ft | 441 kts | 130° |
| 2026-04-25 06:54 | 24.81122 | 55.88754 | 20013 ft | 443 kts | 141° |
| 2026-04-25 06:54 | 24.78641 | 55.90762 | 20469 ft | 443 kts | 150° |
| 2026-04-25 06:54 | 24.75893 | 55.92262 | 20906 ft | 444 kts | 161° |
| 2026-04-25 06:55 | 24.72920 | 55.93226 | 21338 ft | 444 kts | 171° |
| 2026-04-25 06:55 | 24.69872 | 55.93607 | 21763 ft | 443 kts | 181° |
| 2026-04-25 06:55 | 24.66762 | 55.93569 | 22173 ft | 445 kts | 184° |
| 2026-04-25 06:55 | 24.63670 | 55.93193 | 22558 ft | 445 kts | 193° |
| 2026-04-25 06:56 | 24.60703 | 55.92273 | 22925 ft | 446 kts | 203° |
| 2026-04-25 06:56 | 24.57882 | 55.90810 | 23296 ft | 446 kts | 212° |
| 2026-04-25 06:56 | 24.55360 | 55.88888 | 23686 ft | 446 kts | 221° |
| 2026-04-25 06:56 | 24.52992 | 55.86642 | 24118 ft | 447 kts | 223° |
| 2026-04-25 06:57 | 24.50678 | 55.84399 | 24492 ft | 449 kts | 223° |
| 2026-04-25 06:57 | 24.48305 | 55.82102 | 24823 ft | 453 kts | 223° |
| 2026-04-25 06:57 | 24.45949 | 55.79826 | 25230 ft | 455 kts | 223° |
| 2026-04-25 06:57 | 24.43568 | 55.77531 | 25612 ft | 457 kts | 223° |
| 2026-04-25 06:58 | 24.41154 | 55.75205 | 25934 ft | 460 kts | 223° |
| 2026-04-25 06:58 | 24.38761 | 55.72904 | 26254 ft | 463 kts | 223° |
| 2026-04-25 06:58 | 24.36318 | 55.70556 | 26611 ft | 465 kts | 223° |
| 2026-04-25 06:58 | 24.33897 | 55.68232 | 26989 ft | 467 kts | 223° |
| 2026-04-25 06:59 | 24.31441 | 55.65876 | 27348 ft | 469 kts | 223° |
| 2026-04-25 06:59 | 24.28953 | 55.63528 | 27635 ft | 473 kts | 220° |
| 2026-04-25 06:59 | 24.26202 | 55.61490 | 27915 ft | 478 kts | 211° |
| 2026-04-25 06:59 | 24.23193 | 55.59936 | 28208 ft | 483 kts | 202° |
| 2026-04-25 07:00 | 24.19996 | 55.58834 | 28525 ft | 487 kts | 198° |
| 2026-04-25 07:00 | 24.16694 | 55.57840 | 28866 ft | 489 kts | 197° |
| 2026-04-25 07:00 | 24.13422 | 55.56865 | 29163 ft | 491 kts | 197° |
| 2026-04-25 07:00 | 24.10094 | 55.55873 | 29547 ft | 492 kts | 197° |
| 2026-04-25 07:01 | 24.06812 | 55.54895 | 29931 ft | 491 kts | 197° |
| 2026-04-25 07:01 | 24.00201 | 55.52925 | 29966 ft | 488 kts | 197° |
| 2026-04-25 07:02 | 23.93639 | 55.50976 | 29961 ft | 488 kts | 197° |
| 2026-04-25 07:02 | 23.87108 | 55.49038 | 29956 ft | 488 kts | 197° |
| 2026-04-25 07:03 | 23.80555 | 55.47094 | 29955 ft | 488 kts | 197° |
| 2026-04-25 07:03 | 23.73956 | 55.45135 | 29955 ft | 488 kts | 197° |
| 2026-04-25 07:04 | 23.67440 | 55.43202 | 29951 ft | 488 kts | 197° |
| 2026-04-25 07:04 | 23.60865 | 55.41254 | 29956 ft | 488 kts | 197° |
| 2026-04-25 07:05 | 23.54222 | 55.39563 | 29948 ft | 490 kts | 188° |
| 2026-04-25 07:05 | 23.47418 | 55.39785 | 29945 ft | 495 kts | 171° |
| 2026-04-25 07:06 | 23.40696 | 55.41605 | 29948 ft | 498 kts | 166° |
| 2026-04-25 07:06 | 23.33996 | 55.43731 | 29940 ft | 498 kts | 166° |
| 2026-04-25 07:07 | 23.27373 | 55.45840 | 29940 ft | 498 kts | 166° |
| 2026-04-25 07:07 | 23.20721 | 55.47949 | 29934 ft | 497 kts | 166° |
| 2026-04-25 07:08 | 23.14050 | 55.50057 | 29938 ft | 497 kts | 166° |
| 2026-04-25 07:08 | 23.07392 | 55.52156 | 29943 ft | 497 kts | 166° |
| 2026-04-25 07:09 | 23.00747 | 55.54236 | 29952 ft | 498 kts | 166° |